Langara, Aupaluk Airport (CYLA)

NameAupaluk Airport
CityLangara
CountryCanada
ICAOCYLA
IATAYPJ
Altitude37 m
CoordinatesGoogle Map
Live Air TrafficLiveATC.net
METARCYLA 061500Z 32016G24KT 10SM DRSN OVC075 M13/M15 A2965 RMK AC8 SLP044
2019-12-06 15:00:00 Wind: Northwest (320°) 8.23 m/s - Visibility: 16093.4 m - Temperature: -13 °C - Dew point: -15 °C - Humidity: 85.1% - Pressure: 1004.06 hPa

Sorry, no flights used the airport in this database.